createdAt,value
2023-03-21T00:00:31.204Z,40.05
2023-03-21T00:02:57.706Z,38.25
2023-03-21T00:05:24.335Z,41.60
2023-03-21T00:07:51.924Z,42.00
2023-03-21T00:10:29.733Z,51.03
2023-03-21T00:13:05.743Z,39.35
2023-03-21T00:15:42.666Z,41.58
2023-03-21T00:18:12.808Z,40.90
2023-03-21T00:20:39.353Z,40.03
2023-03-21T00:23:06.109Z,40.30
2023-03-21T00:25:33.154Z,38.20
2023-03-21T00:28:07.878Z,40.15
2023-03-21T00:30:35.124Z,30.80
2023-03-21T00:33:12.121Z,41.95
2023-03-21T00:35:58.306Z,41.90
2023-03-21T00:38:29.163Z,36.72
2023-03-21T00:40:58.240Z,40.97
2023-03-21T00:43:30.038Z,42.58
2023-03-21T00:45:58.517Z,44.78
2023-03-21T00:48:26.106Z,47.50
2023-03-21T00:50:54.535Z,33.78
2023-03-21T00:53:21.893Z,35.83
2023-03-21T00:55:48.809Z,37.78
2023-03-21T00:58:16.910Z,39.50
2023-03-21T01:00:43.817Z,36.63
2023-03-21T01:03:23.689Z,39.95
2023-03-21T01:06:07.412Z,43.15
2023-03-21T01:08:50.535Z,45.90
2023-03-21T01:11:20.973Z,40.80
2023-03-21T01:13:54.711Z,42.10
2023-03-21T01:16:25.414Z,39.25
2023-03-21T01:18:52.033Z,35.70
2023-03-21T01:21:18.615Z,30.85
2023-03-21T01:23:46.018Z,47.03
2023-03-21T01:26:14.080Z,49.65
2023-03-21T01:28:42.835Z,42.42
2023-03-21T01:31:12.741Z,47.30
2023-03-21T01:33:39.814Z,38.75
2023-03-21T01:36:13.260Z,42.67
2023-03-21T01:38:41.594Z,38.05
2023-03-21T01:41:19.226Z,37.15
2023-03-21T01:43:47.344Z,36.80
2023-03-21T01:46:26.278Z,34.90
2023-03-21T01:49:02.611Z,41.00
2023-03-21T01:51:32.839Z,34.63
2023-03-21T01:54:00.647Z,35.90
2023-03-21T01:56:37.447Z,41.33
2023-03-21T01:59:14.697Z,41.30
2023-03-21T02:01:42.404Z,39.38
2023-03-21T02:04:09.661Z,35.33
2023-03-21T02:06:52.231Z,38.03
2023-03-21T02:09:24.952Z,38.47
2023-03-21T02:11:52.412Z,33.92
2023-03-21T02:14:28.949Z,39.53
2023-03-21T02:17:05.264Z,40.97
2023-03-21T02:19:53.025Z,38.75
2023-03-21T02:22:24.390Z,42.70
2023-03-21T02:25:08.374Z,33.33
2023-03-21T02:28:09.922Z,40.08
2023-03-21T02:31:17.991Z,36.15
2023-03-21T02:34:00.041Z,46.15
2023-03-21T02:36:57.363Z,31.77
2023-03-21T02:39:38.586Z,43.22
2023-03-21T02:42:20.449Z,34.50
2023-03-21T02:45:09.611Z,40.72
2023-03-21T02:47:52.622Z,49.83
2023-03-21T02:50:32.066Z,38.63
2023-03-21T02:53:00.933Z,40.13
2023-03-21T02:55:31.044Z,39.33
2023-03-21T02:58:11.701Z,46.72
2023-03-21T03:00:40.143Z,43.97
2023-03-21T03:03:11.383Z,34.67
2023-03-21T03:05:55.758Z,44.95
2023-03-21T03:08:50.077Z,40.20
2023-03-21T03:11:29.701Z,42.25
2023-03-21T03:14:35.621Z,38.50
2023-03-21T03:17:23.291Z,44.17
2023-03-21T03:20:15.529Z,38.80
2023-03-21T03:22:54.000Z,36.00
2023-03-21T03:25:42.199Z,45.63
2023-03-21T03:28:10.773Z,42.95
2023-03-21T03:30:46.585Z,39.17
2023-03-21T03:33:17.923Z,43.17
2023-03-21T03:35:53.041Z,37.08
2023-03-21T03:38:31.716Z,37.67
2023-03-21T03:41:04.570Z,32.25
2023-03-21T03:43:46.888Z,42.47
2023-03-21T03:46:36.687Z,33.10
2023-03-21T03:49:21.593Z,36.80
2023-03-21T03:52:12.080Z,37.35
2023-03-21T03:54:43.077Z,40.58
2023-03-21T03:57:11.889Z,50.90
2023-03-21T03:59:40.653Z,34.40
2023-03-21T04:02:07.720Z,39.83
2023-03-21T04:04:35.123Z,38.50
2023-03-21T04:07:03.566Z,43.63
2023-03-21T04:09:43.067Z,42.35
2023-03-21T04:12:12.812Z,41.30
2023-03-21T04:14:45.578Z,40.65
2023-03-21T04:17:13.789Z,41.10
2023-03-21T04:19:40.306Z,37.92
2023-03-21T04:22:07.336Z,41.95
2023-03-21T04:24:34.337Z,40.03
2023-03-21T04:27:01.092Z,38.30
2023-03-21T04:29:29.855Z,43.55
2023-03-21T04:31:56.896Z,44.00
2023-03-21T04:34:27.966Z,33.17
2023-03-21T04:36:55.371Z,40.38
2023-03-21T04:39:22.251Z,41.40
2023-03-21T04:41:49.641Z,32.65
2023-03-21T04:44:17.442Z,43.28
2023-03-21T04:46:44.119Z,39.30
2023-03-21T04:49:10.873Z,46.75
2023-03-21T04:51:37.918Z,48.58
2023-03-21T04:54:05.926Z,43.70
2023-03-21T04:56:33.795Z,49.95
2023-03-21T04:59:02.817Z,54.63
2023-03-21T05:01:32.124Z,45.63
2023-03-21T05:03:59.908Z,41.53
2023-03-21T05:06:27.794Z,49.00
2023-03-21T05:08:56.735Z,49.25
2023-03-21T05:11:23.364Z,51.08
2023-03-21T05:13:49.956Z,41.17
2023-03-21T05:16:16.595Z,50.33
2023-03-21T05:18:43.216Z,37.90
2023-03-21T05:21:10.755Z,47.47
2023-03-21T05:23:38.387Z,47.65
2023-03-21T05:26:08.583Z,40.08
2023-03-21T05:28:36.743Z,42.63
2023-03-21T05:31:04.430Z,50.65
2023-03-21T05:33:31.203Z,53.10
2023-03-21T05:35:58.196Z,42.50
2023-03-21T05:38:25.795Z,37.95
2023-03-21T05:40:54.528Z,45.40
2023-03-21T05:43:21.125Z,39.70
2023-03-21T05:45:48.405Z,48.03
2023-03-21T05:48:15.396Z,50.67
2023-03-21T05:50:42.355Z,39.35
2023-03-21T05:53:09.463Z,47.03
2023-03-21T05:55:36.791Z,46.45
2023-03-21T05:58:03.901Z,44.45
2023-03-21T06:00:30.850Z,46.58
2023-03-21T06:02:57.432Z,48.42
2023-03-21T06:05:23.976Z,54.15
2023-03-21T06:07:50.637Z,42.30
2023-03-21T06:10:17.228Z,38.65
2023-03-21T06:12:43.853Z,43.53
2023-03-21T06:15:10.883Z,48.58
2023-03-21T06:17:37.415Z,48.03
2023-03-21T06:20:05.412Z,44.92
2023-03-21T06:22:32.680Z,44.10
2023-03-21T06:24:59.289Z,47.60
2023-03-21T06:27:25.863Z,49.42
2023-03-21T06:29:52.939Z,46.17
2023-03-21T06:32:19.822Z,59.53
2023-03-21T06:34:47.215Z,50.83
2023-03-21T06:37:13.745Z,49.42
2023-03-21T06:39:40.315Z,42.67
2023-03-21T06:42:06.949Z,46.35
2023-03-21T06:44:33.559Z,42.53
2023-03-21T06:47:00.126Z,51.75
2023-03-21T06:49:27.467Z,43.22
2023-03-21T06:51:54.328Z,50.60
2023-03-21T06:54:21.062Z,45.40
2023-03-21T06:56:47.713Z,45.50
2023-03-21T06:59:14.536Z,45.53
2023-03-21T07:01:41.126Z,40.63
2023-03-21T07:04:07.761Z,41.60
2023-03-21T07:06:34.451Z,48.95
2023-03-21T07:09:03.027Z,48.55
2023-03-21T07:11:29.566Z,40.30
2023-03-21T07:13:56.207Z,47.15
2023-03-21T07:16:22.853Z,45.17
2023-03-21T07:18:49.467Z,42.35
2023-03-21T07:21:16.370Z,37.38
2023-03-21T07:23:42.941Z,45.58
2023-03-21T07:26:09.848Z,50.13
2023-03-21T07:28:36.858Z,47.38
2023-03-21T07:31:06.470Z,49.83
2023-03-21T07:33:33.988Z,47.70
2023-03-21T07:36:01.941Z,49.35
2023-03-21T07:38:30.653Z,42.70
2023-03-21T07:40:58.982Z,44.20
2023-03-21T07:43:25.684Z,44.25
2023-03-21T07:45:57.246Z,46.17
2023-03-21T07:48:24.116Z,41.90
2023-03-21T07:50:51.145Z,41.38
2023-03-21T07:53:17.754Z,55.80
2023-03-21T07:55:44.322Z,52.35
2023-03-21T07:58:11.186Z,45.90
2023-03-21T08:00:37.709Z,47.80
2023-03-21T08:03:04.350Z,37.55
2023-03-21T08:05:35.609Z,44.38
2023-03-21T08:08:02.768Z,50.03
2023-03-21T08:10:29.641Z,39.50
2023-03-21T08:12:56.447Z,38.25
2023-03-21T08:15:23.045Z,42.72
2023-03-21T08:17:49.818Z,47.58
2023-03-21T08:20:22.354Z,43.20
2023-03-21T08:22:49.689Z,44.90
2023-03-21T08:25:19.403Z,55.67
2023-03-21T08:27:46.921Z,46.10
2023-03-21T08:30:15.810Z,38.35
2023-03-21T08:32:42.901Z,49.83
2023-03-21T08:35:12.148Z,40.78
2023-03-21T08:37:40.895Z,46.28
2023-03-21T08:40:11.455Z,43.08
2023-03-21T08:42:39.420Z,44.58
2023-03-21T08:45:07.157Z,37.47
2023-03-21T08:47:33.703Z,43.08
2023-03-21T08:50:00.367Z,47.60
2023-03-21T08:52:27.637Z,42.70
2023-03-21T08:54:54.581Z,37.50
2023-03-21T08:57:21.364Z,39.05
2023-03-21T08:59:47.945Z,44.67
2023-03-21T09:02:16.211Z,40.25
2023-03-21T09:04:43.957Z,44.60
2023-03-21T09:07:12.518Z,39.17
2023-03-21T09:09:39.436Z,47.25
2023-03-21T09:12:06.180Z,42.55
2023-03-21T09:14:33.352Z,36.13
2023-03-21T09:17:00.337Z,39.30
2023-03-21T09:19:27.891Z,41.10
2023-03-21T09:21:55.795Z,40.70
2023-03-21T09:24:22.842Z,38.90
2023-03-21T09:26:51.864Z,39.45
2023-03-21T09:29:20.956Z,45.05
2023-03-21T09:31:48.236Z,39.78
2023-03-21T09:34:15.831Z,40.25
2023-03-21T09:36:44.367Z,37.85
2023-03-21T09:39:12.736Z,44.22
2023-03-21T09:42:06.602Z,39.25
2023-03-21T09:44:54.258Z,42.60
2023-03-21T09:47:33.139Z,43.90
2023-03-21T09:50:14.072Z,40.75
2023-03-21T09:53:01.531Z,46.28
2023-03-21T09:55:31.926Z,41.10
2023-03-21T09:58:09.488Z,44.53
2023-03-21T10:00:45.696Z,41.10
2023-03-21T10:03:35.163Z,49.30
2023-03-21T10:06:10.033Z,43.35
2023-03-21T10:08:43.220Z,43.13
2023-03-21T10:11:19.620Z,52.83
2023-03-21T10:13:55.378Z,41.92
2023-03-21T10:16:36.292Z,38.72
2023-03-21T10:19:13.128Z,43.42
2023-03-21T10:22:03.467Z,39.00
2023-03-21T10:24:34.037Z,42.83
2023-03-21T10:27:02.615Z,46.70
2023-03-21T10:29:39.004Z,40.80
2023-03-21T10:32:09.844Z,38.15
2023-03-21T10:34:41.808Z,35.90
2023-03-21T10:37:08.758Z,40.05
2023-03-21T10:39:39.698Z,39.30
2023-03-21T10:42:06.939Z,37.33
2023-03-21T10:44:35.607Z,42.28
2023-03-21T10:47:08.204Z,33.17
2023-03-21T10:49:56.388Z,34.47
2023-03-21T10:52:28.649Z,35.78
2023-03-21T10:55:21.632Z,33.08
2023-03-21T10:57:53.142Z,33.78
2023-03-21T11:00:25.697Z,31.65
2023-03-21T11:02:53.965Z,30.98
2023-03-21T11:05:27.362Z,32.08
2023-03-21T11:08:11.756Z,29.75
2023-03-21T11:10:51.556Z,26.60
2023-03-21T11:13:24.525Z,26.00
2023-03-21T11:15:56.621Z,30.02
2023-03-21T11:18:30.984Z,26.77
2023-03-21T11:21:03.775Z,26.70
2023-03-21T11:23:34.207Z,26.10
2023-03-21T11:26:02.942Z,22.35
2023-03-21T11:28:37.662Z,29.45
2023-03-21T11:31:06.829Z,24.40
2023-03-21T11:33:51.049Z,23.50
2023-03-21T11:36:20.785Z,30.27
2023-03-21T11:38:53.092Z,24.15
2023-03-21T11:41:25.616Z,26.20
2023-03-21T11:43:53.599Z,25.67
2023-03-21T11:46:25.638Z,25.00
2023-03-21T11:48:52.882Z,25.60
2023-03-21T11:51:41.238Z,25.42
2023-03-21T11:54:23.833Z,25.58
2023-03-21T11:56:58.908Z,25.73
2023-03-21T11:59:42.961Z,28.25
2023-03-21T12:02:28.219Z,31.20
2023-03-21T12:04:58.861Z,28.45
2023-03-21T12:07:34.504Z,28.45
2023-03-21T12:12:47.376Z,28.75
2023-03-21T12:15:16.876Z,29.17
2023-03-21T12:18:08.023Z,27.90
2023-03-21T12:20:37.491Z,27.58
2023-03-21T12:23:12.892Z,27.90
2023-03-21T12:26:03.545Z,26.33
2023-03-21T12:28:42.986Z,28.45
2023-03-21T12:31:25.592Z,28.23
2023-03-21T12:34:12.584Z,28.85
2023-03-21T12:37:17.814Z,30.98
2023-03-21T12:39:47.818Z,28.73
2023-03-21T12:42:35.781Z,29.42
2023-03-21T12:45:15.865Z,32.88
2023-03-21T12:47:48.639Z,29.10
2023-03-21T12:50:37.941Z,31.70
2023-03-21T12:53:27.101Z,29.05
2023-03-21T12:55:57.477Z,30.35
2023-03-21T12:58:28.270Z,30.35
2023-03-21T13:00:58.408Z,30.15
2023-03-21T13:03:39.934Z,32.58
2023-03-21T13:06:10.724Z,27.73
2023-03-21T13:08:42.036Z,29.17
2023-03-21T13:11:13.882Z,28.92
2023-03-21T13:13:51.726Z,31.55
2023-03-21T13:16:24.076Z,28.25
2023-03-21T13:18:54.702Z,33.03
2023-03-21T13:21:21.197Z,31.50
2023-03-21T13:24:22.932Z,28.02
2023-03-21T13:27:00.721Z,31.20
2023-03-21T13:29:44.333Z,30.17
2023-03-21T13:32:29.745Z,30.63
2023-03-21T13:35:15.694Z,30.83
2023-03-21T13:37:49.105Z,31.85
2023-03-21T13:40:29.118Z,30.98
2023-03-21T13:42:59.909Z,33.60
2023-03-21T13:45:44.761Z,43.05
2023-03-21T13:48:32.074Z,32.40
2023-03-21T13:51:04.134Z,28.45
2023-03-21T13:53:37.985Z,30.48
2023-03-21T13:56:22.504Z,28.17
2023-03-21T13:58:48.971Z,30.83
2023-03-21T14:01:35.713Z,37.42
2023-03-21T14:04:12.353Z,35.92
2023-03-21T14:07:12.759Z,37.90
2023-03-21T14:09:40.787Z,37.05
2023-03-21T14:12:14.025Z,32.78
2023-03-21T14:14:45.908Z,27.70
2023-03-21T14:17:13.618Z,31.65
2023-03-21T14:19:40.325Z,33.60
2023-03-21T14:22:13.668Z,31.88
2023-03-21T14:24:41.308Z,36.45
2023-03-21T14:27:08.819Z,35.63
2023-03-21T14:29:35.870Z,33.00
2023-03-21T14:32:03.693Z,33.33
2023-03-21T14:34:34.690Z,36.03
2023-03-21T14:37:01.211Z,34.08
2023-03-21T14:39:33.162Z,32.20
2023-03-21T14:42:09.338Z,32.30
2023-03-21T14:44:54.809Z,28.52
2023-03-21T14:47:24.368Z,48.97
2023-03-21T14:49:51.345Z,49.85
2023-03-21T14:52:34.343Z,38.60
2023-03-21T14:55:02.606Z,36.20
2023-03-21T14:57:32.414Z,29.90
2023-03-21T15:00:02.265Z,30.98
2023-03-21T15:02:38.735Z,31.13
2023-03-21T15:05:33.241Z,25.60
2023-03-21T15:08:11.632Z,25.05
2023-03-21T15:10:38.831Z,23.50
2023-03-21T15:13:18.664Z,23.50
2023-03-21T15:15:46.077Z,20.20
2023-03-21T15:18:17.488Z,21.38
2023-03-21T15:20:48.412Z,18.75
2023-03-21T15:23:30.311Z,18.35
2023-03-21T15:25:57.222Z,16.50
2023-03-21T15:28:25.998Z,18.45
2023-03-21T15:30:53.602Z,15.35
2023-03-21T15:33:23.279Z,14.68
2023-03-21T15:35:54.138Z,12.13
2023-03-21T15:38:41.120Z,14.50
2023-03-21T15:41:34.632Z,12.65
2023-03-21T15:44:14.705Z,15.85
2023-03-21T15:46:48.277Z,13.00
2023-03-21T15:49:14.843Z,13.18
2023-03-21T15:51:44.870Z,14.00
2023-03-21T15:54:16.253Z,21.35
2023-03-21T15:56:46.114Z,16.00
2023-03-21T15:59:18.125Z,14.45
2023-03-21T16:01:49.681Z,18.45
2023-03-21T16:04:18.489Z,16.13
2023-03-21T16:07:16.048Z,18.77
2023-03-21T16:09:46.139Z,19.13
2023-03-21T16:12:16.001Z,18.50
2023-03-21T16:14:43.643Z,22.92
2023-03-21T16:17:28.972Z,24.38
2023-03-21T16:19:55.843Z,18.90
2023-03-21T16:22:22.518Z,19.15
2023-03-21T16:24:49.437Z,23.50
2023-03-21T16:27:17.532Z,21.13
2023-03-21T16:29:44.089Z,22.33
2023-03-21T16:32:17.091Z,21.27
2023-03-21T16:34:44.729Z,24.17
2023-03-21T16:37:12.206Z,24.20
2023-03-21T16:39:39.305Z,27.55
2023-03-21T16:42:05.921Z,22.83
2023-03-21T16:44:33.768Z,25.05
2023-03-21T16:47:02.376Z,23.33
2023-03-21T16:49:29.140Z,23.35
2023-03-21T16:51:57.143Z,23.90
2023-03-21T16:54:23.745Z,22.10
2023-03-21T16:56:55.151Z,24.20
2023-03-21T16:59:22.323Z,25.02
2023-03-21T17:01:49.139Z,24.48
2023-03-21T17:04:17.221Z,22.10
2023-03-21T17:06:50.069Z,25.50
2023-03-21T17:09:19.975Z,24.60
2023-03-21T17:11:47.019Z,22.63
2023-03-21T17:14:16.875Z,26.73
2023-03-21T17:16:43.970Z,25.40
2023-03-21T17:19:20.662Z,24.52
2023-03-21T17:21:47.499Z,28.77
2023-03-21T17:24:14.089Z,27.10
2023-03-21T17:26:40.733Z,26.65
2023-03-21T17:29:07.415Z,28.05
2023-03-21T17:31:38.031Z,27.63
2023-03-21T17:34:04.721Z,26.10
2023-03-21T17:36:37.274Z,26.98
2023-03-21T17:39:06.869Z,24.60
2023-03-21T17:41:33.850Z,28.48
2023-03-21T17:44:00.706Z,28.05
2023-03-21T17:46:29.098Z,28.15
2023-03-21T17:48:56.743Z,27.25
2023-03-21T17:51:26.077Z,26.70
2023-03-21T17:53:52.796Z,24.95
2023-03-21T17:56:26.414Z,24.70
2023-03-21T17:58:53.990Z,24.05
2023-03-21T18:01:20.924Z,25.55
2023-03-21T18:03:47.508Z,26.70
2023-03-21T18:06:20.870Z,24.52
2023-03-21T18:08:48.268Z,22.42
2023-03-21T18:11:16.781Z,25.55
2023-03-21T18:13:44.731Z,20.95
2023-03-21T18:16:20.537Z,25.73
2023-03-21T18:18:47.252Z,26.55
2023-03-21T18:21:18.212Z,33.05
2023-03-21T18:23:46.558Z,35.72
2023-03-21T18:26:17.059Z,34.03
2023-03-21T18:28:44.850Z,35.08
2023-03-21T18:31:19.810Z,39.88
2023-03-21T18:33:48.583Z,35.40
2023-03-21T18:36:24.833Z,42.53
2023-03-21T18:38:52.621Z,40.03
2023-03-21T18:41:19.835Z,36.85
2023-03-21T18:44:04.659Z,40.50
2023-03-21T18:46:33.488Z,39.33
2023-03-21T18:49:13.125Z,41.10
2023-03-21T18:51:47.939Z,37.92
2023-03-21T18:54:15.541Z,36.42
2023-03-21T18:59:39.038Z,34.33
2023-03-21T19:02:06.510Z,35.22
2023-03-21T19:04:34.223Z,31.52
2023-03-21T19:07:01.085Z,35.55
2023-03-21T19:09:31.639Z,31.77
2023-03-21T19:11:58.890Z,33.88
2023-03-21T19:14:25.518Z,32.28
2023-03-21T19:19:39.507Z,33.38
2023-03-21T19:22:06.335Z,31.48
2023-03-21T19:24:32.914Z,29.42
2023-03-21T19:26:59.532Z,32.53
2023-03-21T19:29:26.184Z,31.08
2023-03-21T19:31:53.026Z,28.50
2023-03-21T19:34:20.787Z,32.28
2023-03-21T19:36:51.613Z,32.95
2023-03-21T19:39:22.287Z,40.47
2023-03-21T19:41:50.209Z,33.85
2023-03-21T19:44:16.958Z,31.98
2023-03-21T19:46:43.652Z,33.83
2023-03-21T19:49:11.063Z,28.70
2023-03-21T19:51:37.689Z,27.30
2023-03-21T19:54:05.978Z,32.17
2023-03-21T19:56:34.519Z,28.27
2023-03-21T19:59:02.969Z,28.60
2023-03-21T20:01:30.479Z,27.50
2023-03-21T20:03:57.128Z,27.05
2023-03-21T20:06:24.309Z,29.92
2023-03-21T20:11:41.147Z,29.05
2023-03-21T20:14:07.792Z,30.70
2023-03-21T20:16:36.624Z,29.20
2023-03-21T20:19:05.952Z,27.75
2023-03-21T20:21:42.243Z,28.98
2023-03-21T20:24:12.964Z,28.95
2023-03-21T20:26:39.779Z,27.33
2023-03-21T20:29:56.430Z,27.60
2023-03-21T20:31:55.712Z,29.45
2023-03-21T20:34:22.234Z,26.95
2023-03-21T20:36:49.084Z,26.90
2023-03-21T20:39:15.953Z,31.10
2023-03-21T20:41:42.529Z,35.67
2023-03-21T20:46:57.274Z,32.05
2023-03-21T20:49:24.342Z,32.33
2023-03-21T20:52:49.395Z,31.35
2023-03-21T20:54:37.580Z,30.60
2023-03-21T20:57:04.880Z,29.92
2023-03-21T20:59:31.511Z,31.25
2023-03-21T21:01:58.581Z,28.83
2023-03-21T21:04:46.730Z,31.63
2023-03-21T21:07:17.201Z,39.15
2023-03-21T21:09:44.923Z,28.65
2023-03-21T21:12:13.181Z,29.85
2023-03-21T21:14:40.829Z,34.60
2023-03-21T21:17:46.952Z,33.85
2023-03-21T21:19:54.529Z,45.08
2023-03-21T21:22:21.189Z,34.67
2023-03-21T21:24:48.013Z,32.50
2023-03-21T21:27:14.587Z,35.58
2023-03-21T21:29:43.288Z,35.28
2023-03-21T21:32:11.202Z,34.92
2023-03-21T21:34:38.275Z,30.25
2023-03-21T21:37:05.163Z,35.58
2023-03-21T21:39:37.802Z,29.90
2023-03-21T21:42:05.250Z,29.00
2023-03-21T21:44:33.139Z,27.80
2023-03-21T21:46:59.853Z,28.38
2023-03-21T21:49:27.003Z,33.72
2023-03-21T21:51:53.629Z,32.33
2023-03-21T21:54:20.183Z,27.60
2023-03-21T21:56:48.604Z,30.45
2023-03-21T21:59:18.310Z,26.65
2023-03-21T22:01:46.630Z,29.92
2023-03-21T22:04:14.576Z,27.15
2023-03-21T22:06:42.310Z,25.08
2023-03-21T22:09:09.633Z,24.40
2023-03-21T22:11:36.707Z,24.75
2023-03-21T22:14:03.700Z,25.10
2023-03-21T22:16:30.682Z,26.65
2023-03-21T22:18:57.323Z,29.15
2023-03-21T22:21:24.008Z,26.65
2023-03-21T22:23:50.597Z,27.08
2023-03-21T22:26:17.205Z,26.65
2023-03-21T22:28:43.803Z,27.50
2023-03-21T22:31:13.298Z,27.88
2023-03-21T22:33:39.999Z,25.23
2023-03-21T22:36:06.969Z,23.98
2023-03-21T22:38:34.497Z,26.90
2023-03-21T22:41:05.349Z,23.08
2023-03-21T22:43:34.124Z,23.55
2023-03-21T22:46:02.481Z,26.45
2023-03-21T22:48:32.726Z,25.02
2023-03-21T22:51:00.531Z,26.67
2023-03-21T22:53:27.128Z,21.88
2023-03-21T22:55:53.982Z,25.42
2023-03-21T22:58:20.794Z,25.58
2023-03-21T23:00:47.447Z,29.42
2023-03-21T23:03:16.648Z,27.45
2023-03-21T23:05:44.706Z,28.25
2023-03-21T23:08:11.689Z,27.73
2023-03-21T23:10:40.453Z,26.63
2023-03-21T23:13:07.146Z,25.63
2023-03-21T23:15:33.775Z,33.92
2023-03-21T23:18:00.412Z,27.42
2023-03-21T23:20:26.986Z,29.23
2023-03-21T23:22:53.549Z,27.60
2023-03-21T23:25:20.601Z,24.88
2023-03-21T23:27:47.388Z,27.00
2023-03-21T23:30:14.147Z,24.02
2023-03-21T23:32:40.823Z,24.27
2023-03-21T23:35:08.230Z,27.58
2023-03-21T23:37:34.763Z,23.30
2023-03-21T23:40:01.351Z,25.33
2023-03-21T23:42:29.217Z,29.20
2023-03-21T23:44:56.074Z,32.08
2023-03-21T23:47:22.729Z,25.65
2023-03-21T23:49:50.118Z,25.30
2023-03-21T23:52:16.692Z,25.33
2023-03-21T23:54:43.446Z,25.63
2023-03-21T23:57:11.034Z,25.30
2023-03-21T23:59:37.607Z,26.65
